Nakusp, Canada
Current Conditions -  °F | °C
As of 7:21 PM on Monday 20 Oct 2014 (Local Time) from CYRV Reporting Station
Moderate Rain Moderate Rain  
Wind Chill: 50°   Ceiling: 6000
Heat Index: 50°   Visibility: 5mi
Dew Point: 48°   Wind: 7mph
Humidity: 94%   Direction: 70°ENE
Pressure: 29.75"   Gusts: NA
Location:  50.24°N, 117.8°W
Report Text: CYRV 210221Z AUTO 07006KT 360V170 5SM RA BR SCT014 OVC060 10/09 A2975 RMK PCPN 1.2MM PAST HR SLP082
Loading
Personal Weather Stations






























Interactive Weather Map
Tropical Storm Tracking
New forecast layout! Learn more

10-Day Weather Forecast

Advertisements
Track Severe Weather on mobile